Time;durP1;ratioP1;P1;durP2;ratioP2;P2;SDS_P1;SDS_P2;PMS_P1;PMS_P2;Temp;Humidity;BMP_temperature;BMP_pressure;BME280_temperature;BME280_humidity;BME280_pressure;Samples;Min_cycle;Max_cycle;Signal;HPM_P1;HPM_P2
2022/05/05 00:01:42;;;;;;;6.15;5.55;;;15.50;95.20;;;;;;5015638;28;20033;-76
2022/05/05 00:04:09;;;;;;;6.30;5.70;;;15.50;95.30;;;;;;5015521;28;20053;-76
2022/05/05 00:06:35;;;;;;;9.95;6.47;;;15.50;95.30;;;;;;4996884;28;20030;-76
2022/05/05 00:09:02;;;;;;;10.95;6.68;;;15.50;95.40;;;;;;5015551;28;20057;-76
2022/05/05 00:14:24;;;;;;;7.32;6.63;;;15.40;95.70;;;;;;5015517;28;20399;-76
2022/05/05 00:17:09;;;;;;;8.60;6.13;;;15.40;95.70;;;;;;4997721;28;20022;-75
2022/05/05 00:19:38;;;;;;;6.35;5.72;;;15.40;95.80;;;;;;5015139;28;20033;-75
2022/05/05 00:22:05;;;;;;;9.30;6.00;;;15.40;95.80;;;;;;5015275;28;20022;-75
2022/05/05 00:24:32;;;;;;;8.02;6.03;;;15.40;95.90;;;;;;5015331;28;20029;-75
2022/05/05 00:26:58;;;;;;;7.57;6.78;;;15.30;96.00;;;;;;4997271;28;20049;-75
2022/05/05 00:29:24;;;;;;;7.28;6.50;;;15.40;95.80;;;;;;5015172;28;20043;-75
2022/05/05 00:31:50;;;;;;;8.40;6.55;;;15.40;95.90;;;;;;5015053;28;20046;-75
2022/05/05 00:34:18;;;;;;;10.05;6.53;;;15.40;96.00;;;;;;5013750;28;20054;-76
2022/05/05 00:36:44;;;;;;;7.03;6.15;;;15.40;96.30;;;;;;4997316;28;20034;-75
2022/05/05 00:39:11;;;;;;;10.23;6.07;;;15.30;96.40;;;;;;5015142;28;20026;-75
2022/05/05 00:41:41;;;;;;;13.15;6.15;;;15.30;96.70;;;;;;5061400;23;20013;-76
2022/05/05 00:44:08;;;;;;;8.23;5.85;;;15.20;96.90;;;;;;5033238;28;20037;-76
2022/05/05 00:46:34;;;;;;;9.52;6.75;;;15.20;97.10;;;;;;5033087;28;20494;-75
2022/05/05 00:49:01;;;;;;;13.68;7.07;;;15.20;97.20;;;;;;5014743;28;20064;-75
2022/05/05 00:51:27;;;;;;;10.32;6.78;;;15.20;97.20;;;;;;5033208;28;20021;-75
2022/05/05 00:53:54;;;;;;;8.07;6.28;;;15.20;97.30;;;;;;5033692;28;20021;-76
2022/05/05 00:59:06;;;;;;;8.07;6.38;;;15.10;97.50;;;;;;5034195;28;20040;-76
2022/05/05 01:01:33;;;;;;;8.55;6.00;;;15.10;97.60;;;;;;5034228;28;20022;-75
2022/05/05 01:03:59;;;;;;;9.93;6.32;;;15.10;97.70;;;;;;5016387;28;20033;-75
2022/05/05 01:06:24;;;;;;;8.02;6.45;;;15.10;97.60;;;;;;5015598;28;20095;-76
2022/05/05 01:08:50;;;;;;;7.00;6.25;;;15.10;97.60;;;;;;5034082;28;20017;-75
2022/05/05 01:11:16;;;;;;;8.45;5.60;;;15.20;97.70;;;;;;5034058;28;20601;-76
2022/05/05 01:13:42;;;;;;;7.35;5.75;;;15.20;97.70;;;;;;5033943;28;20056;-76
2022/05/05 01:16:10;;;;;;;11.15;6.38;;;15.20;97.90;;;;;;5033795;28;20139;-76
2022/05/05 01:18:37;;;;;;;12.98;6.68;;;15.10;98.70;;;;;;5033894;28;20049;-76
2022/05/05 01:21:03;;;;;;;8.25;5.82;;;15.10;98.10;;;;;;5033681;28;20087;-76
2022/05/05 01:23:29;;;;;;;7.20;6.43;;;15.10;97.90;;;;;;5016125;28;20053;-75
2022/05/05 01:28:43;;;;;;;8.63;6.32;;;15.10;98.10;;;;;;5033557;28;20545;-76
2022/05/05 01:31:09;;;;;;;7.28;6.07;;;15.00;98.30;;;;;;5033364;28;20072;-76
2022/05/05 01:33:35;;;;;;;7.43;6.53;;;15.00;98.10;;;;;;5015836;28;20049;-76
2022/05/05 01:36:02;;;;;;;8.93;6.60;;;15.10;97.90;;;;;;5033577;28;20032;-76
2022/05/05 01:38:43;;;;;;;8.00;5.90;;;15.10;97.90;;;;;;5033508;28;20087;-76
2022/05/05 01:41:13;;;;;;;7.88;6.82;;;15.10;97.90;;;;;;5033628;28;20074;-76
2022/05/05 01:43:42;;;;;;;7.72;5.95;;;15.20;98.00;;;;;;5012317;28;20403;-76
2022/05/05 01:46:08;;;;;;;9.60;6.72;;;15.20;97.80;;;;;;5013614;28;20034;-76
2022/05/05 01:48:34;;;;;;;10.20;6.38;;;15.10;97.90;;;;;;5013739;28;20093;-76
2022/05/05 01:51:00;;;;;;;9.20;6.30;;;15.10;98.20;;;;;;5013515;28;20184;-76
2022/05/05 01:53:26;;;;;;;7.50;5.97;;;15.00;98.50;;;;;;5013498;28;20029;-76
2022/05/05 01:55:52;;;;;;;13.15;6.30;;;15.00;98.70;;;;;;5013387;28;20034;-76
2022/05/05 01:58:18;;;;;;;8.27;6.28;;;15.00;98.70;;;;;;5012763;28;20052;-76
2022/05/05 02:00:43;;;;;;;8.15;6.45;;;15.00;98.80;;;;;;4994904;28;20602;-76
2022/05/05 02:03:12;;;;;;;6.85;6.15;;;14.90;99.00;;;;;;5012497;28;20439;-76
2022/05/05 02:06:07;;;;;;;7.03;6.15;;;14.90;99.20;;;;;;5021531;23;20009;-76
2022/05/05 02:08:32;;;;;;;6.75;5.93;;;14.70;99.50;;;;;;5028264;28;20053;-75
2022/05/05 02:10:59;;;;;;;8.85;6.75;;;14.70;99.60;;;;;;5030196;28;20036;-75
2022/05/05 02:13:24;;;;;;;7.93;6.55;;;14.70;99.70;;;;;;5013351;28;20080;-76
2022/05/05 02:15:50;;;;;;;7.75;6.95;;;14.70;99.70;;;;;;5013928;28;20022;-75
2022/05/05 02:18:18;;;;;;;9.02;6.68;;;14.80;99.90;;;;;;5033032;28;20022;-75
2022/05/05 02:20:44;;;;;;;10.48;6.53;;;14.80;99.90;;;;;;5032948;28;20104;-76
2022/05/05 02:23:10;;;;;;;8.88;6.53;;;14.70;99.90;;;;;;5032804;28;20105;-75
2022/05/05 02:25:36;;;;;;;10.15;7.13;;;14.60;99.90;;;;;;5032493;28;20431;-76
2022/05/05 02:28:03;;;;;;;10.50;6.85;;;14.60;99.90;;;;;;5014743;28;20112;-75
2022/05/05 02:30:30;;;;;;;10.02;7.65;;;14.50;99.90;;;;;;5032812;28;20029;-75
2022/05/05 02:32:56;;;;;;;9.60;7.13;;;14.50;99.90;;;;;;5032976;28;20033;-75
2022/05/05 02:35:23;;;;;;;7.95;6.53;;;14.50;99.90;;;;;;5032509;28;20084;-75
2022/05/05 02:40:34;;;;;;;9.38;6.75;;;14.50;99.90;;;;;;5031933;28;20076;-76
2022/05/05 02:43:01;;;;;;;7.47;6.50;;;14.60;99.90;;;;;;5031586;28;20544;-76
2022/05/05 02:45:27;;;;;;;7.35;6.53;;;14.60;99.90;;;;;;5031326;28;20096;-76
2022/05/05 02:47:53;;;;;;;8.13;6.00;;;14.60;99.90;;;;;;5031508;28;20052;-76
2022/05/05 02:50:19;;;;;;;6.60;5.97;;;14.70;99.90;;;;;;5031735;28;20018;-76
2022/05/05 02:52:45;;;;;;;6.88;5.97;;;14.70;99.90;;;;;;5031364;28;20501;-76
2022/05/05 02:55:11;;;;;;;8.82;6.50;;;14.80;99.90;;;;;;5031578;28;20049;-76
2022/05/05 02:57:37;;;;;;;7.22;6.38;;;14.80;99.90;;;;;;5013899;28;20025;-76
2022/05/05 03:00:07;;;;;;;12.18;7.10;;;14.80;99.90;;;;;;5031399;28;20026;-76
2022/05/05 03:02:33;;;;;;;9.48;6.65;;;14.80;99.90;;;;;;5013598;28;20398;-76
2022/05/05 03:04:59;;;;;;;11.13;7.20;;;14.80;99.90;;;;;;5013706;28;20479;-77
2022/05/05 03:07:25;;;;;;;11.52;7.55;;;14.80;99.90;;;;;;5016511;28;20049;-76
2022/05/05 03:09:51;;;;;;;8.02;7.15;;;14.80;99.90;;;;;;5011640;28;20034;-76
2022/05/05 03:12:16;;;;;;;8.95;7.40;;;14.90;99.90;;;;;;5011887;28;20057;-76
2022/05/05 03:14:44;;;;;;;17.08;7.50;;;14.90;99.90;;;;;;4994038;28;20049;-76
2022/05/05 03:17:09;;;;;;;8.10;7.28;;;14.90;99.90;;;;;;5011539;28;20022;-76
2022/05/05 03:19:35;;;;;;;9.75;7.38;;;15.00;99.90;;;;;;5012350;28;20018;-76
2022/05/05 03:22:01;;;;;;;7.60;6.70;;;15.00;99.90;;;;;;4994979;28;20030;-76
2022/05/05 03:24:27;;;;;;;8.73;6.60;;;14.90;99.90;;;;;;5012519;28;20018;-76
2022/05/05 03:26:53;;;;;;;7.70;6.78;;;15.10;99.90;;;;;;4994826;28;20026;-76
2022/05/05 03:29:18;;;;;;;8.65;7.10;;;15.10;99.90;;;;;;5012544;28;20519;-76
2022/05/05 03:31:44;;;;;;;8.48;6.30;;;15.10;99.90;;;;;;5012664;28;20054;-76
2022/05/05 03:34:10;;;;;;;9.48;7.40;;;15.10;99.90;;;;;;4994978;28;20022;-76
2022/05/05 03:36:36;;;;;;;9.75;6.88;;;15.10;99.90;;;;;;5012037;28;20026;-76
2022/05/05 03:39:02;;;;;;;7.93;6.68;;;15.10;99.90;;;;;;5012268;28;20036;-76
2022/05/05 03:41:28;;;;;;;11.77;7.25;;;15.10;99.90;;;;;;4996870;28;20026;-76
2022/05/05 03:43:54;;;;;;;8.02;6.43;;;15.10;99.90;;;;;;5015813;28;20112;-76
2022/05/05 03:46:20;;;;;;;8.40;6.95;;;15.20;99.90;;;;;;5015682;28;20022;-77
2022/05/05 03:48:45;;;;;;;9.10;6.97;;;15.20;99.90;;;;;;4998223;28;20026;-76
2022/05/05 03:51:11;;;;;;;9.27;6.78;;;15.20;99.90;;;;;;5015849;28;20077;-77
2022/05/05 03:53:37;;;;;;;8.98;6.43;;;15.20;99.90;;;;;;5015650;28;20053;-76
2022/05/05 03:56:04;;;;;;;9.00;6.25;;;15.20;99.90;;;;;;5015702;28;20109;-76
2022/05/05 03:58:30;;;;;;;7.80;6.63;;;15.30;99.90;;;;;;5015760;28;20105;-76
2022/05/05 04:00:56;;;;;;;7.47;6.38;;;15.30;99.90;;;;;;5015811;28;20045;-76
2022/05/05 04:03:31;;;;;;;7.95;6.22;;;15.30;99.90;;;;;;5015650;28;20010;-76
2022/05/05 04:05:57;;;;;;;9.88;6.40;;;15.30;99.90;;;;;;5015440;28;20034;-76
2022/05/05 04:08:23;;;;;;;8.20;6.90;;;15.30;99.90;;;;;;5015342;28;20049;-76
2022/05/05 04:10:49;;;;;;;9.02;6.72;;;15.20;99.90;;;;;;5015468;28;20013;-76
2022/05/05 04:13:15;;;;;;;7.97;6.80;;;15.20;99.90;;;;;;5015377;28;20018;-76
2022/05/05 04:15:40;;;;;;;7.38;6.68;;;15.10;99.90;;;;;;5015392;28;20112;-76
2022/05/05 04:18:06;;;;;;;9.15;6.47;;;15.10;99.90;;;;;;5015257;28;20080;-76
2022/05/05 04:20:32;;;;;;;7.45;6.72;;;15.10;99.90;;;;;;5015358;28;20510;-76
2022/05/05 04:22:58;;;;;;;9.63;7.15;;;15.10;99.90;;;;;;5015257;28;20053;-76
2022/05/05 04:25:24;;;;;;;10.95;6.75;;;15.10;99.90;;;;;;4997493;28;20056;-76
2022/05/05 04:27:50;;;;;;;7.40;6.68;;;15.20;99.90;;;;;;5015087;28;20104;-76
2022/05/05 04:30:17;;;;;;;8.57;6.55;;;15.10;99.90;;;;;;5015036;28;20105;-76
2022/05/05 04:32:46;;;;;;;8.32;7.05;;;15.10;99.90;;;;;;5015044;28;20022;-76
2022/05/05 04:55:20;;;;;;;7.47;6.40;;;15.20;99.90;;;;;;4851527;23;20082;-76
2022/05/05 04:57:46;;;;;;;10.57;6.20;;;15.30;99.90;;;;;;5013123;28;20502;-76
2022/05/05 05:00:12;;;;;;;7.72;6.63;;;15.20;99.90;;;;;;4995529;28;20630;-76
2022/05/05 05:02:53;;;;;;;7.40;5.80;;;15.30;99.90;;;;;;5014753;28;20108;-76
2022/05/05 05:05:18;;;;;;;10.85;6.43;;;15.30;99.90;;;;;;4996384;28;20033;-76
2022/05/05 05:07:44;;;;;;;8.20;6.72;;;15.30;99.90;;;;;;5024832;28;20021;-76
2022/05/05 05:10:11;;;;;;;7.22;6.15;;;15.30;99.90;;;;;;5009307;28;20028;-76
2022/05/05 05:12:36;;;;;;;9.05;6.57;;;15.30;99.90;;;;;;5034208;28;20379;-76
2022/05/05 05:15:03;;;;;;;8.60;7.20;;;15.30;99.90;;;;;;5034037;28;20016;-76
2022/05/05 05:17:28;;;;;;;9.27;6.38;;;15.30;99.90;;;;;;5034036;28;20025;-76
2022/05/05 05:19:54;;;;;;;7.43;6.65;;;15.30;99.90;;;;;;5034066;28;20036;-76
2022/05/05 05:22:20;;;;;;;7.78;6.07;;;15.30;99.90;;;;;;5016164;28;20617;-76
2022/05/05 05:24:46;;;;;;;8.25;6.80;;;15.30;99.90;;;;;;5033785;28;20029;-76
2022/05/05 05:27:12;;;;;;;7.57;6.28;;;15.30;99.90;;;;;;5033707;28;20561;-76
2022/05/05 05:29:37;;;;;;;7.72;6.50;;;15.30;99.90;;;;;;5033720;28;20398;-76
2022/05/05 05:32:04;;;;;;;8.43;6.32;;;15.40;99.90;;;;;;5033821;28;20048;-76
2022/05/05 05:34:29;;;;;;;8.00;6.90;;;15.40;99.90;;;;;;5033419;28;20087;-76
2022/05/05 05:36:55;;;;;;;9.27;6.10;;;15.40;99.90;;;;;;5033525;28;20021;-76
2022/05/05 05:39:21;;;;;;;8.15;6.85;;;15.40;99.90;;;;;;5033509;28;20040;-76
2022/05/05 05:41:47;;;;;;;7.55;6.55;;;15.40;99.90;;;;;;5033284;28;20513;-76
2022/05/05 05:44:13;;;;;;;7.45;6.65;;;15.50;99.90;;;;;;5033542;28;20037;-76
2022/05/05 05:46:38;;;;;;;7.30;6.60;;;15.40;99.90;;;;;;5033200;28;20528;-76
2022/05/05 05:49:05;;;;;;;10.90;6.72;;;15.50;99.90;;;;;;5033450;28;20068;-76
2022/05/05 05:51:32;;;;;;;7.85;6.43;;;15.50;99.90;;;;;;5015744;28;20067;-76
2022/05/05 05:53:58;;;;;;;9.82;6.68;;;15.60;99.90;;;;;;5033335;28;20058;-76
2022/05/05 05:56:24;;;;;;;8.45;6.20;;;15.60;99.90;;;;;;5016671;28;20053;-76
2022/05/05 05:58:50;;;;;;;8.48;6.47;;;15.70;99.90;;;;;;5013604;28;20060;-76
2022/05/05 06:01:15;;;;;;;7.57;6.43;;;15.70;99.90;;;;;;4995849;28;20034;-76
2022/05/05 06:03:53;;;;;;;10.13;6.40;;;15.70;99.90;;;;;;4995031;28;20034;-76
2022/05/05 06:06:23;;;;;;;8.77;7.28;;;15.80;99.90;;;;;;5013252;28;20030;-76
2022/05/05 06:08:49;;;;;;;8.23;6.93;;;15.80;99.90;;;;;;5013442;28;20028;-76
2022/05/05 06:11:17;;;;;;;11.23;7.35;;;15.90;99.90;;;;;;5013147;28;20029;-76
2022/05/05 06:13:43;;;;;;;13.15;8.32;;;15.90;99.90;;;;;;5013582;28;20045;-76
2022/05/05 06:16:10;;;;;;;13.57;8.48;;;15.90;99.90;;;;;;4995658;28;20113;-76
2022/05/05 06:18:39;;;;;;;11.35;8.55;;;16.00;99.90;;;;;;4995741;28;20030;-76
2022/05/05 06:21:06;;;;;;;11.82;8.27;;;16.00;99.90;;;;;;5013262;28;20022;-76
2022/05/05 06:23:32;;;;;;;10.07;7.90;;;16.10;99.90;;;;;;4995416;28;20117;-76
2022/05/05 06:25:58;;;;;;;8.38;7.55;;;16.20;99.90;;;;;;5012867;28;20049;-76
2022/05/05 06:28:23;;;;;;;10.80;8.23;;;16.20;99.90;;;;;;5013271;28;20080;-76
2022/05/05 06:30:49;;;;;;;10.00;8.25;;;16.30;99.90;;;;;;5013207;28;20045;-76
2022/05/05 06:33:15;;;;;;;12.43;7.95;;;16.30;99.90;;;;;;4995558;28;20110;-76
2022/05/05 06:35:41;;;;;;;8.95;8.05;;;16.30;99.90;;;;;;5013034;28;20037;-77
2022/05/05 06:38:07;;;;;;;14.02;8.27;;;16.40;99.90;;;;;;5013076;28;20042;-76
2022/05/05 06:40:34;;;;;;;10.30;7.78;;;16.40;99.90;;;;;;5013026;28;20026;-76
2022/05/05 06:43:01;;;;;;;11.48;8.13;;;16.50;99.90;;;;;;4994362;28;20064;-76
2022/05/05 06:45:27;;;;;;;14.77;9.07;;;16.50;99.90;;;;;;4993838;28;20026;-77
2022/05/05 06:47:53;;;;;;;11.85;8.32;;;16.50;99.90;;;;;;5011044;28;20092;-76
2022/05/05 06:50:22;;;;;;;12.63;8.35;;;16.50;99.90;;;;;;5010597;28;20030;-77
2022/05/05 06:52:48;;;;;;;12.38;8.32;;;16.50;99.90;;;;;;4992671;28;20065;-77
2022/05/05 06:55:15;;;;;;;20.00;8.98;;;16.60;99.90;;;;;;4996042;28;20073;-77
2022/05/05 06:57:41;;;;;;;13.93;8.93;;;16.60;99.90;;;;;;4991020;28;20023;-77
2022/05/05 07:00:07;;;;;;;15.18;8.48;;;16.70;99.90;;;;;;4990704;28;20033;-77
2022/05/05 07:02:32;;;;;;;14.52;9.57;;;16.70;99.90;;;;;;4991089;28;20049;-77
2022/05/05 07:07:42;;;;;;;15.32;9.82;;;16.80;99.90;;;;;;5013007;28;20056;-76
2022/05/05 07:12:52;;;;;;;17.83;9.70;;;16.90;99.90;;;;;;5012982;28;20464;-76
2022/05/05 07:15:18;;;;;;;14.48;9.45;;;16.90;99.90;;;;;;5014470;28;20116;-75
2022/05/05 07:17:44;;;;;;;16.05;10.68;;;17.00;99.90;;;;;;5016426;28;20113;-77
2022/05/05 07:20:09;;;;;;;21.38;10.65;;;17.00;99.90;;;;;;5015061;28;20080;-77
2022/05/05 07:22:35;;;;;;;21.13;11.32;;;17.00;99.90;;;;;;5016420;28;20142;-77
2022/05/05 07:25:03;;;;;;;12.18;9.63;;;16.90;99.90;;;;;;5014745;28;20161;-77
2022/05/05 07:27:29;;;;;;;16.73;10.90;;;17.00;99.90;;;;;;5004871;28;20113;-77
2022/05/05 07:29:55;;;;;;;20.20;11.00;;;17.10;99.90;;;;;;4996740;28;20072;-77
2022/05/05 07:32:21;;;;;;;16.90;10.35;;;17.20;99.90;;;;;;4996775;28;20480;-77
2022/05/05 07:34:46;;;;;;;19.88;11.00;;;17.20;99.90;;;;;;4996626;28;20435;-77
2022/05/05 07:37:12;;;;;;;20.58;11.32;;;17.30;99.90;;;;;;4996678;28;20049;-77
2022/05/05 07:39:38;;;;;;;15.07;10.13;;;17.30;99.90;;;;;;4996545;28;20085;-77
2022/05/05 07:42:04;;;;;;;21.17;11.50;;;17.40;99.90;;;;;;4995191;28;20031;-77
2022/05/05 07:44:36;;;;;;;13.57;10.02;;;17.30;99.90;;;;;;4996355;28;20033;-76
2022/05/05 07:47:02;;;;;;;12.45;10.30;;;17.40;99.90;;;;;;4994925;28;20041;-77
2022/05/05 07:49:28;;;;;;;16.48;11.25;;;17.40;99.90;;;;;;4995961;28;20018;-76
2022/05/05 07:51:57;;;;;;;15.52;10.70;;;17.40;99.90;;;;;;4994880;28;20019;-77
2022/05/05 07:54:35;;;;;;;18.00;10.20;;;17.40;99.90;;;;;;4996095;28;20101;-76
2022/05/05 07:57:08;;;;;;;17.38;10.07;;;17.50;99.90;;;;;;5019726;28;20033;-76
2022/05/05 07:59:34;;;;;;;14.73;10.30;;;17.50;99.90;;;;;;5033211;28;20451;-76
2022/05/05 08:02:01;;;;;;;21.13;10.63;;;17.60;99.90;;;;;;5034254;28;20090;-76
2022/05/05 08:04:26;;;;;;;17.75;9.80;;;17.60;99.90;;;;;;5017615;28;20033;-76
2022/05/05 08:06:52;;;;;;;23.83;11.15;;;17.70;99.90;;;;;;5017343;28;20403;-76
2022/05/05 08:09:18;;;;;;;17.85;10.32;;;17.70;99.90;;;;;;5035247;28;20052;-76
2022/05/05 08:11:44;;;;;;;17.17;10.95;;;17.70;99.90;;;;;;5017349;28;20101;-76
2022/05/05 08:14:10;;;;;;;14.23;10.50;;;17.70;99.90;;;;;;5035206;28;20021;-75
2022/05/05 08:16:36;;;;;;;14.85;10.55;;;17.90;99.90;;;;;;5026193;28;20025;-75
2022/05/05 08:19:02;;;;;;;19.77;9.77;;;17.90;99.90;;;;;;5015531;28;20156;-75
2022/05/05 08:21:28;;;;;;;21.90;15.65;;;18.00;99.90;;;;;;5014750;28;20029;-76
2022/05/05 08:29:23;;;;;;;12.77;9.50;;;18.00;99.90;;;;;;5015566;28;20041;-76
2022/05/05 08:31:48;;;;;;;15.25;9.30;;;18.10;99.90;;;;;;5014750;28;20026;-76
2022/05/05 08:34:14;;;;;;;14.77;10.32;;;18.10;99.90;;;;;;5015060;28;20471;-75
2022/05/05 08:36:40;;;;;;;13.15;9.68;;;18.10;99.90;;;;;;4997246;28;20037;-76
2022/05/05 08:39:06;;;;;;;17.65;10.82;;;18.30;99.90;;;;;;4997597;28;20030;-76
2022/05/05 08:41:33;;;;;;;20.05;10.68;;;18.30;99.90;;;;;;5014890;28;20104;-76
2022/05/05 08:44:00;;;;;;;14.13;9.68;;;18.30;99.90;;;;;;5014821;28;20029;-76
2022/05/05 08:46:27;;;;;;;14.40;8.93;;;18.30;99.90;;;;;;5014656;28;20120;-76
2022/05/05 08:49:06;;;;;;;16.67;10.02;;;18.40;99.90;;;;;;4997113;28;20024;-75
2022/05/05 08:51:46;;;;;;;11.00;9.13;;;18.40;99.90;;;;;;5014875;28;20026;-76
2022/05/05 08:54:16;;;;;;;14.90;9.43;;;18.40;99.60;;;;;;5014690;28;20030;-75
2022/05/05 08:56:43;;;;;;;14.77;9.32;;;18.40;98.50;;;;;;5014407;28;20045;-76
2022/05/05 08:59:09;;;;;;;12.40;8.57;;;18.40;98.90;;;;;;5014757;28;20231;-76
2022/05/05 09:01:38;;;;;;;13.27;9.43;;;18.50;98.80;;;;;;5014467;28;20022;-76
2022/05/05 09:04:08;;;;;;;18.35;9.65;;;18.60;99.20;;;;;;5014330;28;20032;-76
2022/05/05 09:06:46;;;;;;;11.85;9.43;;;18.50;99.00;;;;;;5006400;28;20542;-75
2022/05/05 09:09:28;;;;;;;13.25;9.43;;;18.60;98.80;;;;;;5016417;28;20526;-76
2022/05/05 09:12:13;;;;;;;14.35;10.10;;;18.60;98.80;;;;;;5016340;28;20483;-75
2022/05/05 09:14:53;;;;;;;12.30;9.52;;;18.60;99.10;;;;;;5034125;28;20026;-76
2022/05/05 09:17:28;;;;;;;13.40;9.68;;;18.70;99.10;;;;;;5034198;28;20025;-76
2022/05/05 09:19:55;;;;;;;20.35;9.98;;;18.70;99.60;;;;;;5016136;28;20041;-76
2022/05/05 09:22:23;;;;;;;13.40;10.32;;;18.70;99.10;;;;;;5033845;28;20029;-76
2022/05/05 09:24:51;;;;;;;21.17;11.05;;;18.80;99.10;;;;;;5033829;28;20028;-75
2022/05/05 09:27:20;;;;;;;13.63;10.10;;;18.80;99.10;;;;;;5033660;28;20056;-76
2022/05/05 09:30:05;;;;;;;13.50;10.45;;;18.70;99.90;;;;;;5033779;28;20022;-75
2022/05/05 09:32:34;;;;;;;13.27;10.27;;;18.70;99.50;;;;;;5016013;28;20025;-75
2022/05/05 09:35:03;;;;;;;15.13;10.73;;;18.80;99.40;;;;;;5033568;28;20017;-76
2022/05/05 09:37:29;;;;;;;18.00;10.10;;;18.80;98.50;;;;;;5015522;28;20029;-76
2022/05/05 09:39:57;;;;;;;12.73;9.40;;;18.90;98.60;;;;;;5033479;28;20429;-76
2022/05/05 09:42:36;;;;;;;16.95;10.85;;;18.90;98.40;;;;;;5015723;28;20025;-75
2022/05/05 09:45:30;;;;;;;16.00;10.30;;;18.90;98.10;;;;;;5033253;28;20513;-76
2022/05/05 09:47:59;;;;;;;14.32;9.85;;;18.70;98.10;;;;;;5033259;28;20029;-75
2022/05/05 09:50:28;;;;;;;15.10;10.18;;;18.80;98.50;;;;;;5015709;28;20029;-75
2022/05/05 09:58:27;;;;;;;13.48;9.82;;;18.90;98.30;;;;;;5030185;28;20091;-75
2022/05/05 10:01:04;;;;;;;16.27;10.43;;;19.00;99.10;;;;;;5030716;28;20372;-76
2022/05/05 10:04:01;;;;;;;12.55;10.02;;;19.00;99.00;;;;;;5012971;28;20398;-76
2022/05/05 10:06:43;;;;;;;10.80;9.48;;;19.10;99.40;;;;;;5012261;28;20454;-75
2022/05/05 10:09:14;;;;;;;14.93;10.52;;;19.10;99.90;;;;;;5030330;28;20046;-75
2022/05/05 10:11:41;;;;;;;13.82;9.73;;;19.20;99.60;;;;;;4994148;28;20464;-75
2022/05/05 10:14:09;;;;;;;16.90;9.18;;;19.30;99.20;;;;;;5010554;28;20037;-75
2022/05/05 10:16:37;;;;;;;16.27;10.13;;;19.20;98.70;;;;;;5010727;28;20057;-75
2022/05/05 10:19:04;;;;;;;14.65;10.65;;;19.20;98.80;;;;;;4992466;28;20029;-76
2022/05/05 10:22:01;;;;;;;17.10;9.55;;;19.30;99.30;;;;;;5010559;28;20025;-76
2022/05/05 10:24:32;;;;;;;13.00;9.45;;;19.30;98.20;;;;;;4989519;28;20072;-76
2022/05/05 10:26:59;;;;;;;11.82;9.05;;;19.30;98.20;;;;;;4992465;28;20057;-75
2022/05/05 10:29:31;;;;;;;11.35;8.75;;;19.30;98.40;;;;;;5010387;28;20017;-75
2022/05/05 10:32:12;;;;;;;16.35;9.35;;;19.30;98.30;;;;;;5010846;28;20092;-76
2022/05/05 10:35:01;;;;;;;12.60;8.57;;;19.20;98.20;;;;;;5010844;28;20033;-75
2022/05/05 10:37:37;;;;;;;18.75;10.10;;;19.30;98.30;;;;;;4999090;28;20046;-75
2022/05/05 10:40:07;;;;;;;10.60;8.95;;;19.20;97.70;;;;;;4992273;28;20112;-76
2022/05/05 10:42:45;;;;;;;16.63;8.80;;;19.30;97.80;;;;;;5010598;28;20026;-75
2022/05/05 10:45:14;;;;;;;11.05;8.82;;;19.30;97.80;;;;;;5010426;28;20472;-76
2022/05/05 10:47:59;;;;;;;11.82;8.43;;;19.40;98.00;;;;;;5010872;28;20021;-77
2022/05/05 10:51:05;;;;;;;18.77;9.23;;;19.50;98.30;;;;;;5012829;28;20033;-77
2022/05/05 10:57:31;;;;;;;14.90;9.52;;;19.50;97.20;;;;;;5028615;28;20068;-77
2022/05/05 11:00:19;;;;;;;12.70;9.95;;;19.50;97.50;;;;;;5032877;28;20040;-77
2022/05/05 11:03:09;;;;;;;11.93;8.60;;;19.40;97.20;;;;;;5016385;28;20040;-77
2022/05/05 11:05:47;;;;;;;13.07;9.50;;;19.40;97.40;;;;;;5016064;28;20643;-77
2022/05/05 11:11:41;;;;;;;11.27;8.40;;;19.50;97.70;;;;;;5033964;28;20549;-77
2022/05/05 11:23:12;;;;;;;10.63;7.65;;;19.70;96.50;;;;;;5013241;28;20036;-77
2022/05/05 11:25:41;;;;;;;9.95;7.90;;;19.70;96.30;;;;;;5013491;28;20543;-77
2022/05/05 11:28:10;;;;;;;9.07;7.75;;;19.70;96.20;;;;;;5012559;28;20026;-77
2022/05/05 11:30:36;;;;;;;9.13;7.25;;;19.70;96.50;;;;;;5012946;28;20369;-77
2022/05/05 11:33:03;;;;;;;6.78;5.35;;;19.70;95.90;;;;;;5012744;28;20376;-77
2022/05/05 11:35:29;;;;;;;7.13;6.00;;;19.80;94.20;;;;;;5013359;28;20438;-77
2022/05/05 11:38:00;;;;;;;8.20;4.10;;;19.80;95.50;;;;;;5013068;28;20026;-77
2022/05/05 11:40:35;;;;;;;6.93;3.47;;;19.90;93.00;;;;;;5012279;28;20033;-77
2022/05/05 11:46:01;;;;;;;8.27;3.65;;;20.00;93.40;;;;;;5013486;28;20076;-77
2022/05/05 11:48:32;;;;;;;3.35;3.08;;;20.10;92.20;;;;;;4995633;28;20037;-77
2022/05/05 11:51:06;;;;;;;4.20;3.80;;;20.10;92.70;;;;;;5012341;28;20018;-76
2022/05/05 11:53:38;;;;;;;3.47;3.25;;;20.20;91.50;;;;;;5012468;28;20022;-77
2022/05/05 11:56:15;;;;;;;3.90;3.60;;;20.20;90.70;;;;;;4995302;28;20050;-77
2022/05/05 12:04:10;;;;;;;3.35;2.95;;;20.20;90.10;;;;;;4608718;22;20422;-75
2022/05/05 12:06:38;;;;;;;3.35;3.13;;;20.20;89.90;;;;;;5029734;28;20108;-75
2022/05/05 12:09:09;;;;;;;4.30;3.80;;;20.20;90.70;;;;;;5011174;28;20029;-74
2022/05/05 12:11:35;;;;;;;4.88;3.80;;;20.30;91.10;;;;;;5027497;28;20022;-75
2022/05/05 12:14:06;;;;;;;3.60;3.30;;;20.30;89.40;;;;;;5014822;28;20024;-75
2022/05/05 12:16:35;;;;;;;3.20;3.00;;;20.40;89.10;;;;;;5032036;28;20362;-75
2022/05/05 12:19:20;;;;;;;4.28;3.88;;;20.30;89.50;;;;;;5031910;28;20079;-75
2022/05/05 12:21:57;;;;;;;3.83;3.40;;;20.40;89.20;;;;;;5014270;28;20021;-75
2022/05/05 12:24:24;;;;;;;5.05;3.70;;;20.50;90.50;;;;;;5032084;28;20462;-75
2022/05/05 12:27:05;;;;;;;3.58;3.38;;;20.50;90.70;;;;;;5014306;28;20033;-75
2022/05/05 12:29:42;;;;;;;4.65;3.33;;;20.60;90.10;;;;;;5014153;28;20404;-75
2022/05/05 12:32:13;;;;;;;6.72;3.60;;;20.60;90.00;;;;;;5014012;28;20049;-75
2022/05/05 12:34:39;;;;;;;3.65;3.35;;;20.70;90.60;;;;;;5032305;28;20025;-75
2022/05/05 12:37:18;;;;;;;4.47;3.65;;;20.70;90.90;;;;;;5031754;28;20029;-75
2022/05/05 12:39:51;;;;;;;4.43;3.30;;;20.80;89.30;;;;;;5031578;28;20112;-75
2022/05/05 12:42:17;;;;;;;3.10;2.90;;;20.80;89.40;;;;;;5013673;28;20605;-75
2022/05/05 12:44:44;;;;;;;5.25;3.35;;;20.90;87.50;;;;;;5014062;28;20336;-75
2022/05/05 12:47:10;;;;;;;4.18;3.83;;;20.90;89.10;;;;;;5013881;28;20025;-75
2022/05/05 12:49:37;;;;;;;4.40;4.10;;;21.00;87.80;;;;;;5013458;28;20475;-75
2022/05/05 12:52:04;;;;;;;6.80;3.63;;;20.90;88.70;;;;;;5031915;28;20048;-75
2022/05/05 13:00:00;;;;;;;5.22;3.33;;;20.80;82.80;;;;;;5031908;28;20477;-75
2022/05/05 13:02:26;;;;;;;4.93;4.57;;;20.70;85.50;;;;;;5031692;28;20022;-75
2022/05/05 13:04:52;;;;;;;6.10;4.10;;;20.50;87.30;;;;;;5031094;28;20065;-74
2022/05/05 13:07:19;;;;;;;3.70;3.40;;;20.40;85.40;;;;;;5013728;28;20033;-75
2022/05/05 13:09:45;;;;;;;6.97;3.70;;;20.40;86.40;;;;;;5030892;28;20036;-75
2022/05/05 13:12:11;;;;;;;6.15;3.58;;;20.40;88.20;;;;;;5021902;28;20018;-75
2022/05/05 13:14:37;;;;;;;4.15;3.85;;;20.30;86.20;;;;;;5011909;28;20026;-75
2022/05/05 13:17:03;;;;;;;4.25;3.85;;;20.20;85.40;;;;;;4998142;28;20402;-75
2022/05/05 13:19:29;;;;;;;4.03;3.63;;;20.20;85.40;;;;;;5013668;28;20509;-75
2022/05/05 13:21:56;;;;;;;3.90;3.58;;;20.20;87.20;;;;;;5031218;28;20059;-75
2022/05/05 13:24:22;;;;;;;3.75;3.45;;;20.10;88.10;;;;;;5054319;22;20069;-76
2022/05/05 13:26:48;;;;;;;5.28;3.88;;;20.10;86.90;;;;;;4989548;28;20026;-75
2022/05/05 13:29:14;;;;;;;4.30;4.00;;;20.00;89.00;;;;;;4987265;28;20027;-76
2022/05/05 13:31:40;;;;;;;5.30;3.88;;;20.00;86.90;;;;;;4987611;28;20026;-76
2022/05/05 13:34:07;;;;;;;7.00;3.90;;;20.00;86.90;;;;;;4973535;28;20026;-76
2022/05/05 13:36:35;;;;;;;5.05;4.47;;;20.00;87.20;;;;;;4974336;28;20030;-76
2022/05/05 13:39:02;;;;;;;8.00;4.85;;;19.90;88.10;;;;;;4991700;28;20022;-76
2022/05/05 13:41:28;;;;;;;5.25;4.70;;;19.90;88.60;;;;;;4974699;28;20114;-75
2022/05/05 13:43:53;;;;;;;6.78;4.40;;;19.80;85.30;;;;;;4991754;28;20053;-76
2022/05/05 13:46:19;;;;;;;4.18;3.97;;;19.80;87.60;;;;;;4992080;28;20027;-75
2022/05/05 13:48:45;;;;;;;6.32;4.57;;;19.80;88.40;;;;;;4990556;28;20026;-76
2022/05/05 13:51:11;;;;;;;5.28;4.68;;;19.80;90.10;;;;;;4991506;28;20507;-75
2022/05/05 13:53:37;;;;;;;5.30;4.68;;;19.70;90.00;;;;;;4991821;28;20025;-76
2022/05/05 13:56:03;;;;;;;11.63;5.35;;;19.70;89.90;;;;;;4991710;28;20026;-76
2022/05/05 13:58:30;;;;;;;6.93;5.45;;;19.70;90.80;;;;;;4974478;28;20111;-76
2022/05/05 14:00:55;;;;;;;7.40;6.03;;;19.60;92.10;;;;;;4974217;28;20038;-76
2022/05/05 14:03:21;;;;;;;9.00;6.13;;;19.60;92.60;;;;;;4991956;28;20022;-76
2022/05/05 14:05:47;;;;;;;8.25;6.03;;;19.60;93.00;;;;;;4991401;28;20511;-76